Emlenton, Pennsylvania
Current Conditions -  °F | °C
As of 3:35 PM on Friday 28 Nov 2014 (Local Time) from KFKL Reporting Station
Overcast Overcast  
Wind Chill: 15°   Ceiling: 2900
Heat Index: 23°   Visibility: 10mi
Dew Point: 10°   Wind: 7mph
Humidity: 59%   Direction: 220°SW
Pressure: 30.21"   Gusts: NA
Location:  41.18°N, 79.71°W
Report Text: KFKL 282035Z AUTO 22006KT 10SM OVC029 M05/M12 A3021 RMK AO1
Loading
Personal Weather Stations






























Interactive Weather Map New forecast layout! Learn more

10-Day Weather Forecast

Advertisements
Track Severe Weather on mobile